Time;durP1;ratioP1;P1;durP2;ratioP2;P2;SDS_P1;SDS_P2;PMS_P1;PMS_P2;Temp;Humidity;BMP_temperature;BMP_pressure;BME280_temperature;BME280_humidity;BME280_pressure;Samples;Min_cycle;Max_cycle;Signal;HPM_P1;HPM_P2
2021/08/26 00:00:08;;;;;;;9.03;4.70;;;;;;;22.75;51.11;97897.16;5069049;28;20233;-77
2021/08/26 00:08:08;;;;;;;7.73;4.40;;;;;;;22.90;52.76;97888.13;5060472;28;20206;-74
2021/08/26 00:10:36;;;;;;;8.70;4.63;;;;;;;23.21;54.27;97884.91;5054089;28;20226;-74
2021/08/26 00:13:06;;;;;;;7.73;4.50;;;;;;;23.28;55.94;97874.53;5056769;28;20206;-76
2021/08/26 00:15:33;;;;;;;8.40;3.80;;;;;;;23.19;56.26;97872.66;5051595;28;20705;-74
2021/08/26 00:18:03;;;;;;;6.37;4.20;;;;;;;23.33;55.11;97868.22;5071431;28;20241;-74
2021/08/26 00:20:30;;;;;;;7.87;4.20;;;;;;;23.19;54.89;97865.31;5051296;28;20237;-74
2021/08/26 00:22:58;;;;;;;7.20;4.27;;;;;;;23.06;53.90;97859.69;5056259;28;20241;-76
2021/08/26 00:25:25;;;;;;;10.47;4.20;;;;;;;22.98;56.21;97854.84;5060651;28;20210;-74
2021/08/26 00:27:52;;;;;;;7.00;4.13;;;;;;;22.75;56.24;97850.13;5067674;28;20201;-74
2021/08/26 00:30:20;;;;;;;9.97;4.90;;;;;;;22.57;53.84;97861.63;5055468;28;20233;-74
2021/08/26 00:32:47;;;;;;;7.37;4.40;;;;;;;22.41;54.25;97855.44;5053103;28;20202;-74
2021/08/26 00:35:16;;;;;;;8.33;4.30;;;;;;;21.86;55.46;97860.28;5070018;28;20209;-75
2021/08/26 00:37:43;;;;;;;7.60;3.97;;;;;;;22.14;54.16;97863.16;5063251;28;20221;-75
2021/08/26 00:40:11;;;;;;;7.53;4.10;;;;;;;21.78;55.84;97852.72;5053104;28;20229;-74
2021/08/26 00:42:39;;;;;;;7.50;4.30;;;;;;;22.23;58.52;97857.97;5052399;28;20206;-75
2021/08/26 00:45:07;;;;;;;7.37;4.30;;;;;;;21.98;59.19;97856.16;5068795;28;20201;-74
2021/08/26 00:47:35;;;;;;;6.87;4.57;;;;;;;21.80;57.67;97864.94;5060037;28;20209;-75
2021/08/26 00:50:02;;;;;;;8.40;4.07;;;;;;;22.29;58.64;97857.66;5047642;28;20229;-75
2021/08/26 00:52:30;;;;;;;8.27;5.20;;;;;;;22.19;57.37;97857.72;5051850;28;20205;-75
2021/08/26 00:54:59;;;;;;;6.73;4.40;;;;;;;21.91;56.78;97863.81;5067473;28;20209;-74
2021/08/26 00:57:27;;;;;;;9.43;4.70;;;;;;;21.86;61.98;97858.38;5072249;28;20221;-75
2021/08/26 00:59:55;;;;;;;8.37;4.33;;;;;;;21.80;61.85;97842.38;5049314;28;20300;-75
2021/08/26 01:02:29;;;;;;;9.50;4.90;;;;;;;22.31;59.89;97844.63;5054064;28;20205;-75
2021/08/26 01:05:03;;;;;;;7.47;4.60;;;;;;;21.64;60.38;97838.03;5063921;28;20671;-75
2021/08/26 01:07:36;;;;;;;7.73;4.00;;;;;;;21.37;65.88;97821.22;5070127;28;20194;-75
2021/08/26 01:10:05;;;;;;;7.17;4.30;;;;;;;21.52;64.07;97822.03;5052102;28;20693;-75
2021/08/26 01:12:34;;;;;;;7.17;4.10;;;;;;;21.57;66.09;97813.88;5053989;28;20205;-75
2021/08/26 01:15:01;;;;;;;8.00;4.90;;;;;;;21.52;63.13;97818.50;5055694;28;20216;-75
2021/08/26 01:17:30;;;;;;;7.37;4.20;;;;;;;21.39;63.62;97819.09;5070702;28;20243;-75
2021/08/26 01:19:59;;;;;;;7.13;4.40;;;;;;;21.69;66.25;97819.03;5059838;28;20236;-75
2021/08/26 01:22:28;;;;;;;8.87;4.20;;;;;;;22.13;61.66;97818.06;5054807;28;20208;-76
2021/08/26 01:25:00;;;;;;;8.47;4.07;;;;;;;22.47;59.19;97820.91;5069490;28;20198;-76
2021/08/26 01:27:29;;;;;;;8.13;4.27;;;;;;;22.25;58.58;97825.91;5072175;28;20193;-75
2021/08/26 01:29:58;;;;;;;7.33;4.37;;;;;;;21.58;60.81;97825.56;5054710;28;20272;-75
2021/08/26 01:32:26;;;;;;;6.83;4.37;;;;;;;21.59;61.46;97821.75;5052507;28;20194;-75
2021/08/26 01:34:54;;;;;;;8.17;4.63;;;;;;;21.43;61.38;97820.97;5071115;28;20211;-75
2021/08/26 01:37:23;;;;;;;8.73;4.47;;;;;;;21.32;60.97;97816.63;5070305;28;20225;-75
2021/08/26 01:39:51;;;;;;;8.17;4.67;;;;;;;21.36;62.72;97815.00;5062108;28;20229;-76
2021/08/26 01:42:20;;;;;;;7.47;4.30;;;;;;;21.01;64.35;97817.75;5061646;28;20300;-75
2021/08/26 01:44:49;;;;;;;10.97;4.53;;;;;;;21.27;62.16;97808.50;5071088;28;20208;-75
2021/08/26 01:47:18;;;;;;;7.73;4.57;;;;;;;21.27;63.28;97807.69;5062009;28;20676;-75
2021/08/26 01:49:46;;;;;;;7.90;4.43;;;;;;;21.20;67.08;97799.00;5049023;28;20232;-75
2021/08/26 01:52:15;;;;;;;10.27;4.73;;;;;;;21.03;63.05;97810.13;5060459;28;20201;-75
2021/08/26 01:54:44;;;;;;;8.47;4.60;;;;;;;21.57;64.19;97805.72;5058004;28;20236;-75
2021/08/26 01:57:12;;;;;;;9.50;4.20;;;;;;;21.50;65.34;97802.50;5072136;28;20230;-75
2021/08/26 01:59:39;;;;;;;8.10;4.60;;;;;;;21.21;63.33;97811.50;5064369;28;20579;-76
2021/08/26 02:02:08;;;;;;;6.63;4.37;;;;;;;21.55;65.57;97809.81;5050835;28;20682;-75
2021/08/26 02:04:35;;;;;;;6.37;4.43;;;;;;;21.62;65.04;97813.88;5055691;28;20211;-75
2021/08/26 02:07:03;;;;;;;7.93;4.73;;;;;;;21.65;65.92;97813.31;5063738;28;20193;-75
2021/08/26 02:09:30;;;;;;;8.57;4.63;;;;;;;21.41;63.66;97817.72;5065364;28;20589;-75
2021/08/26 02:11:57;;;;;;;8.93;4.80;;;;;;;21.57;63.18;97826.63;5050958;28;20779;-75
2021/08/26 02:14:24;;;;;;;7.70;4.40;;;;;;;21.63;63.05;97815.47;5069951;28;20713;-75
2021/08/26 02:16:52;;;;;;;7.07;4.30;;;;;;;21.44;64.97;97809.00;5070995;28;20217;-75
2021/08/26 02:19:21;;;;;;;8.73;4.50;;;;;;;21.88;64.72;97804.56;5059877;28;20230;-75
2021/08/26 02:21:48;;;;;;;6.33;4.13;;;;;;;21.59;64.14;97808.97;5051100;28;20228;-76
2021/08/26 02:24:15;;;;;;;7.83;4.00;;;;;;;21.71;63.95;97806.00;5057591;28;20205;-74
2021/08/26 02:26:42;;;;;;;9.80;5.33;;;;;;;21.46;63.94;97800.59;5069984;28;20216;-74
2021/08/26 02:29:10;;;;;;;9.83;4.63;;;;;;;21.20;64.84;97790.88;5072293;28;20687;-74
2021/08/26 02:31:37;;;;;;;10.50;4.90;;;;;;;21.19;63.75;97794.69;5052582;28;20244;-74
2021/08/26 02:34:04;;;;;;;7.87;4.23;;;;;;;21.13;68.79;97779.50;5064828;28;20213;-74
2021/08/26 02:36:33;;;;;;;6.90;4.00;;;;;;;21.34;67.34;97783.78;5071045;28;20223;-74
2021/08/26 02:39:00;;;;;;;7.33;4.27;;;;;;;21.14;66.36;97776.50;5056146;28;20732;-74
2021/08/26 02:41:28;;;;;;;8.37;4.30;;;;;;;21.23;65.00;97777.56;5055923;28;20231;-74
2021/08/26 02:43:55;;;;;;;6.93;3.97;;;;;;;21.16;64.64;97770.78;5069045;28;20214;-73
2021/08/26 02:46:22;;;;;;;9.13;4.20;;;;;;;21.03;68.30;97765.94;5063973;28;20210;-74
2021/08/26 02:48:50;;;;;;;10.20;4.90;;;;;;;21.10;65.88;97764.56;5048691;28;20220;-74
2021/08/26 02:51:17;;;;;;;9.70;4.23;;;;;;;20.93;70.35;97753.16;5055761;28;20593;-75
2021/08/26 02:53:46;;;;;;;6.43;3.70;;;;;;;21.02;69.42;97750.75;5073266;28;20209;-74
2021/08/26 02:56:13;;;;;;;7.93;4.30;;;;;;;21.30;68.57;97745.53;5062221;28;20209;-74
2021/08/26 02:58:40;;;;;;;6.30;4.30;;;;;;;21.61;63.32;97748.94;5061557;28;20212;-74
2021/08/26 03:01:07;;;;;;;8.53;4.47;;;;;;;21.70;63.21;97748.16;5054323;28;20575;-74
2021/08/26 03:03:35;;;;;;;6.80;4.40;;;;;;;21.44;65.69;97745.75;5058066;28;20206;-74
2021/08/26 03:06:02;;;;;;;10.67;4.97;;;;;;;21.72;64.80;97735.09;5071509;28;20659;-74
2021/08/26 03:08:31;;;;;;;7.53;3.90;;;;;;;21.19;64.22;97733.06;5053711;28;20304;-74
2021/08/26 03:11:00;;;;;;;8.73;4.10;;;;;;;20.61;65.57;97727.38;5054609;28;20236;-74
2021/08/26 03:13:27;;;;;;;6.93;4.40;;;;;;;20.66;66.33;97720.06;5058276;28;20208;-74
2021/08/26 03:15:55;;;;;;;10.10;4.80;;;;;;;21.02;64.24;97720.91;5062602;28;20208;-74
2021/08/26 03:18:22;;;;;;;12.93;4.90;;;;;;;20.84;64.87;97727.66;5058375;28;20222;-74
2021/08/26 03:20:49;;;;;;;8.20;4.50;;;;;;;20.73;64.35;97730.66;5052508;28;20231;-74
2021/08/26 03:23:17;;;;;;;7.93;4.67;;;;;;;20.73;63.94;97734.16;5057452;28;20200;-75
2021/08/26 03:25:44;;;;;;;5.90;4.03;;;;;;;20.56;64.35;97727.38;5073583;28;20203;-75
2021/08/26 03:28:13;;;;;;;7.77;4.87;;;;;;;20.33;64.72;97728.75;5061244;28;20221;-75
2021/08/26 03:30:42;;;;;;;8.03;4.30;;;;;;;21.59;60.86;97729.41;5061183;28;20237;-75
2021/08/26 03:33:09;;;;;;;9.80;4.67;;;;;;;21.37;60.55;97737.91;5058916;28;20209;-75
2021/08/26 03:35:36;;;;;;;8.50;4.57;;;;;;;21.32;57.98;97739.81;5065808;28;20216;-75
2021/08/26 03:38:04;;;;;;;7.70;4.43;;;;;;;21.27;62.62;97728.94;5069082;28;20234;-75
2021/08/26 03:40:31;;;;;;;9.00;4.70;;;;;;;21.20;59.49;97734.69;5053175;28;20229;-75
2021/08/26 03:42:59;;;;;;;8.90;4.47;;;;;;;21.03;61.13;97744.22;5066206;28;20208;-75
2021/08/26 03:45:27;;;;;;;7.10;4.50;;;;;;;21.32;64.19;97743.34;5063580;28;20210;-76
2021/08/26 03:47:55;;;;;;;7.60;4.33;;;;;;;21.45;62.88;97747.38;5069633;28;20201;-75
2021/08/26 03:50:22;;;;;;;6.80;4.40;;;;;;;21.60;60.70;97745.44;5061513;28;20224;-75
2021/08/26 03:52:49;;;;;;;6.67;4.47;;;;;;;21.47;64.05;97739.75;5065881;28;20206;-75
2021/08/26 03:55:17;;;;;;;5.90;4.40;;;;;;;21.57;61.33;97753.31;5063190;28;20197;-75
2021/08/26 03:57:44;;;;;;;6.37;4.17;;;;;;;21.46;63.63;97730.00;5065022;28;20231;-75
2021/08/26 04:00:12;;;;;;;10.13;4.17;;;;;;;21.84;60.04;97734.78;5052792;28;20233;-75
2021/08/26 04:02:41;;;;;;;10.90;4.90;;;;;;;21.63;62.76;97734.00;5057237;28;20211;-75
2021/08/26 04:05:09;;;;;;;7.17;4.10;;;;;;;21.68;62.92;97723.16;5063456;28;20205;-75
2021/08/26 04:07:36;;;;;;;7.00;4.10;;;;;;;21.86;61.39;97724.44;5073192;28;20207;-75
2021/08/26 04:10:04;;;;;;;7.60;4.13;;;;;;;21.70;64.69;97715.56;5053709;28;20231;-75
2021/08/26 04:12:32;;;;;;;8.07;4.13;;;;;;;22.13;61.76;97730.25;5060085;28;20680;-76
2021/08/26 04:14:59;;;;;;;8.20;4.33;;;;;;;22.15;62.82;97728.06;5071823;28;20195;-75
2021/08/26 04:17:26;;;;;;;8.30;4.70;;;;;;;22.26;62.54;97726.91;5064002;28;20739;-75
2021/08/26 04:19:55;;;;;;;5.90;4.00;;;;;;;22.28;62.26;97725.53;5051324;28;20593;-75
2021/08/26 04:22:22;;;;;;;7.47;4.33;;;;;;;22.31;61.76;97719.56;5063098;28;20204;-75
2021/08/26 04:24:50;;;;;;;9.07;4.30;;;;;;;22.16;61.05;97726.97;5070968;28;20215;-75
2021/08/26 04:27:17;;;;;;;7.60;4.63;;;;;;;21.97;61.49;97724.09;5072741;28;20193;-75
2021/08/26 04:29:44;;;;;;;7.43;4.33;;;;;;;21.92;63.86;97723.31;5062808;28;20297;-75
2021/08/26 04:32:11;;;;;;;6.07;3.93;;;;;;;22.08;62.16;97717.50;5060997;28;20202;-76
2021/08/26 04:34:39;;;;;;;9.03;4.67;;;;;;;22.14;61.69;97716.38;5072478;28;20204;-74
2021/08/26 04:37:07;;;;;;;6.57;3.70;;;;;;;21.82;65.14;97707.88;5072574;28;20221;-74
2021/08/26 04:39:35;;;;;;;8.03;4.30;;;;;;;21.21;66.15;97701.03;5056853;28;20662;-74
2021/08/26 04:42:02;;;;;;;7.53;4.40;;;;;;;21.95;63.97;97703.72;5060063;28;20205;-73
2021/08/26 04:44:29;;;;;;;8.47;4.70;;;;;;;22.06;63.13;97702.56;5064495;28;20221;-73
2021/08/26 04:46:57;;;;;;;7.90;3.90;;;;;;;22.66;62.58;97703.00;5059632;28;20205;-74
2021/08/26 04:49:24;;;;;;;6.40;4.07;;;;;;;22.48;59.95;97700.13;5053973;28;20206;-76
2021/08/26 04:51:51;;;;;;;8.83;3.93;;;;;;;22.58;59.81;97711.75;5065546;28;20225;-75
2021/08/26 04:54:20;;;;;;;5.70;4.00;;;;;;;22.85;60.12;97706.59;5072010;28;20193;-76
2021/08/26 04:56:47;;;;;;;8.03;4.50;;;;;;;22.80;57.94;97719.47;5054371;28;20207;-76
2021/08/26 04:59:15;;;;;;;8.57;4.90;;;;;;;22.64;59.45;97716.06;5055845;28;20202;-76
2021/08/26 05:01:42;;;;;;;8.37;4.53;;;;;;;22.47;59.75;97712.09;5059148;28;20230;-76
2021/08/26 05:04:09;;;;;;;7.93;4.37;;;;;;;22.08;64.26;97703.91;5063762;28;20205;-76
2021/08/26 05:06:37;;;;;;;10.03;4.93;;;;;;;22.48;60.81;97719.16;5058864;28;20293;-76
2021/08/26 05:09:04;;;;;;;8.17;4.53;;;;;;;22.49;60.65;97726.25;5050780;28;20202;-75
2021/08/26 05:11:33;;;;;;;6.33;4.10;;;;;;;22.12;64.40;97713.16;5054986;28;20224;-76
2021/08/26 05:14:00;;;;;;;7.27;4.60;;;;;;;22.63;61.95;97724.50;5063890;28;20206;-76
2021/08/26 05:16:27;;;;;;;5.87;4.13;;;;;;;22.36;61.85;97722.22;5060537;28;20626;-76
2021/08/26 05:18:55;;;;;;;6.90;4.20;;;;;;;22.37;62.55;97710.25;5055509;28;20234;-76
2021/08/26 05:21:22;;;;;;;8.47;4.47;;;;;;;22.22;59.82;97717.69;5053398;28;20224;-76
2021/08/26 05:23:49;;;;;;;7.63;4.13;;;;;;;22.33;57.82;97714.63;5071736;28;20201;-76
2021/08/26 05:26:16;;;;;;;8.40;4.43;;;;;;;22.66;56.77;97718.50;5070170;28;20202;-76
2021/08/26 05:28:46;;;;;;;9.07;4.40;;;;;;;22.77;56.15;97729.00;5053979;28;20214;-77
2021/08/26 05:31:13;;;;;;;7.77;4.10;;;;;;;22.34;54.46;97729.06;5052026;28;20632;-76
2021/08/26 05:33:41;;;;;;;12.90;5.07;;;;;;;22.36;57.14;97729.56;5070583;28;20206;-74
2021/08/26 05:36:09;;;;;;;10.53;4.10;;;;;;;22.43;61.31;97725.44;5060239;28;20216;-75
2021/08/26 05:38:36;;;;;;;6.73;3.83;;;;;;;22.57;60.57;97718.28;5052382;28;20226;-74
2021/08/26 05:41:03;;;;;;;10.13;4.43;;;;;;;22.73;54.37;97738.00;5063212;28;20217;-76
2021/08/26 05:43:30;;;;;;;9.37;4.23;;;;;;;23.09;52.53;97734.69;5073728;28;20283;-76
2021/08/26 05:45:59;;;;;;;10.93;4.57;;;;;;;22.96;56.15;97731.84;5068950;28;20222;-73
2021/08/26 05:48:28;;;;;;;9.00;5.10;;;;;;;23.24;54.40;97744.66;5046406;28;20228;-75
2021/08/26 05:50:56;;;;;;;8.60;4.40;;;;;;;22.60;57.03;97734.03;5065772;28;20225;-77
2021/08/26 05:53:23;;;;;;;7.40;4.17;;;;;;;22.69;56.54;97742.41;5061888;28;20642;-75
2021/08/26 05:55:50;;;;;;;7.97;4.23;;;;;;;22.80;56.57;97735.78;5046595;28;20211;-77
2021/08/26 05:58:18;;;;;;;11.27;4.87;;;;;;;22.90;56.17;97741.94;5062078;28;20214;-75
2021/08/26 06:00:45;;;;;;;8.43;5.03;;;;;;;22.92;52.41;97756.09;5057560;28;20230;-74
2021/08/26 06:03:15;;;;;;;9.03;3.90;;;;;;;22.62;56.55;97737.28;5054785;28;20265;-81
2021/08/26 06:05:42;;;;;;;7.50;4.63;;;;;;;22.78;55.24;97744.22;5049948;28;20224;-79
2021/08/26 06:08:10;;;;;;;9.27;4.70;;;;;;;22.81;54.31;97751.03;5054250;28;20206;-77
2021/08/26 06:10:37;;;;;;;8.77;4.47;;;;;;;22.51;59.06;97740.38;5054490;28;20318;-76
2021/08/26 06:13:05;;;;;;;12.40;4.90;;;;;;;22.59;56.31;97737.06;5062800;28;20625;-75
2021/08/26 06:15:32;;;;;;;9.97;5.40;;;;;;;22.64;55.44;97737.03;5073616;28;20573;-79
2021/08/26 06:18:00;;;;;;;7.97;4.83;;;;;;;22.52;59.23;97733.84;5062099;28;20213;-77
2021/08/26 06:20:28;;;;;;;9.40;4.70;;;;;;;22.52;58.58;97734.66;5063791;28;20230;-76
2021/08/26 06:22:56;;;;;;;7.73;4.23;;;;;;;22.78;60.14;97736.06;5050101;28;20203;-75
2021/08/26 06:25:23;;;;;;;8.20;4.43;;;;;;;22.95;58.18;97747.34;5056100;28;20229;-74
2021/08/26 06:27:50;;;;;;;9.13;4.73;;;;;;;22.16;58.82;97756.88;5073162;28;20194;-74
2021/08/26 06:30:18;;;;;;;7.53;4.83;;;;;;;22.79;57.55;97750.47;5065016;28;20318;-74
2021/08/26 06:32:45;;;;;;;8.33;5.40;;;;;;;23.32;54.28;97757.66;5049280;28;20679;-74
2021/08/26 06:35:12;;;;;;;10.50;4.30;;;;;;;23.21;56.54;97758.84;5067966;28;20824;-74
2021/08/26 06:37:41;;;;;;;8.83;4.70;;;;;;;22.82;58.43;97755.34;5074697;28;20217;-74
2021/08/26 06:40:09;;;;;;;11.23;4.77;;;;;;;22.80;56.09;97755.63;5070479;28;20223;-74
2021/08/26 06:42:36;;;;;;;8.87;4.67;;;;;;;22.57;57.81;97756.38;5046735;28;20265;-74
2021/08/26 06:45:04;;;;;;;11.33;4.53;;;;;;;22.78;56.42;97760.56;5070400;28;20197;-75
2021/08/26 06:47:31;;;;;;;7.87;4.70;;;;;;;23.30;54.49;97754.41;5063474;28;20227;-76
2021/08/26 06:49:59;;;;;;;9.07;4.90;;;;;;;23.19;56.87;97758.31;5063394;28;20244;-75
2021/08/26 06:52:26;;;;;;;7.73;4.57;;;;;;;22.78;56.37;97763.28;5045114;28;20567;-74
2021/08/26 06:54:55;;;;;;;8.80;5.43;;;;;;;23.22;53.14;97769.47;5068823;28;20207;-76
2021/08/26 06:57:24;;;;;;;9.63;4.93;;;;;;;23.42;54.20;97763.78;5073096;28;20199;-75
2021/08/26 06:59:51;;;;;;;10.80;5.33;;;;;;;22.89;56.67;97764.00;5064193;28;20225;-76
2021/08/26 07:02:19;;;;;;;9.00;5.43;;;;;;;22.82;56.42;97767.06;5048769;28;20211;-75
2021/08/26 07:04:46;;;;;;;10.63;5.33;;;;;;;22.99;55.48;97761.19;5066993;28;20578;-75
2021/08/26 07:07:13;;;;;;;7.80;5.10;;;;;;;23.29;56.51;97759.03;5074372;28;20235;-74
2021/08/26 07:09:40;;;;;;;8.93;5.43;;;;;;;23.63;53.22;97770.66;5068025;28;20199;-74
2021/08/26 07:12:09;;;;;;;10.37;6.30;;;;;;;22.69;56.71;97756.81;5051861;28;20200;-74
2021/08/26 07:14:37;;;;;;;13.70;6.37;;;;;;;22.32;60.29;97745.63;5048416;28;20582;-74
2021/08/26 07:17:04;;;;;;;11.07;6.67;;;;;;;22.53;58.53;97744.44;5067736;28;20592;-74
2021/08/26 07:19:31;;;;;;;10.67;6.83;;;;;;;22.00;60.18;97739.03;5072973;28;20765;-75
2021/08/26 07:21:59;;;;;;;12.57;7.33;;;;;;;22.75;57.61;97741.28;5055571;28;20686;-74
2021/08/26 07:24:26;;;;;;;8.83;6.00;;;;;;;23.35;54.99;97741.53;5053166;28;20942;-75
2021/08/26 07:26:53;;;;;;;12.30;6.33;;;;;;;22.04;59.37;97738.19;5068010;28;20202;-74
2021/08/26 07:29:22;;;;;;;11.23;6.33;;;;;;;22.68;60.13;97724.44;5063519;28;20195;-75
2021/08/26 07:31:49;;;;;;;9.30;6.17;;;;;;;23.42;55.16;97739.28;5052532;28;20601;-75
2021/08/26 07:34:17;;;;;;;10.00;6.30;;;;;;;23.10;56.96;97732.78;5070961;28;20198;-75
2021/08/26 07:36:44;;;;;;;13.67;7.53;;;;;;;23.30;56.02;97732.63;5070478;28;20207;-75
2021/08/26 07:39:11;;;;;;;12.13;5.47;;;;;;;23.27;56.22;97731.28;5069196;28;20318;-75
2021/08/26 07:41:39;;;;;;;15.57;6.93;;;;;;;23.69;53.95;97731.34;5046326;28;20602;-73
2021/08/26 07:44:06;;;;;;;11.17;6.63;;;;;;;23.30;54.92;97729.91;5052990;28;20286;-76
2021/08/26 07:46:35;;;;;;;13.43;7.07;;;;;;;23.08;57.20;97715.91;5069598;28;20195;-75
2021/08/26 07:49:02;;;;;;;11.60;6.80;;;;;;;23.58;54.15;97718.94;5068662;28;20200;-73
2021/08/26 07:51:30;;;;;;;15.77;6.30;;;;;;;22.71;56.42;97721.97;5060195;28;20254;-76
2021/08/26 07:53:57;;;;;;;12.37;6.43;;;;;;;23.43;54.41;97738.19;5057758;28;20200;-77
2021/08/26 07:56:24;;;;;;;8.43;5.70;;;;;;;23.03;54.10;97729.59;5064811;28;20217;-77
2021/08/26 07:58:59;;;;;;;11.17;6.20;;;;;;;23.36;53.34;97726.00;5056916;28;20246;-79
2021/08/26 08:01:31;;;;;;;12.40;5.50;;;;;;;23.29;54.22;97729.06;5060436;28;20716;-79
2021/08/26 08:04:03;;;;;;;10.20;5.73;;;;;;;23.50;52.87;97735.91;5053856;28;20200;-79
2021/08/26 08:06:34;;;;;;;10.70;5.53;;;;;;;23.42;53.70;97739.28;5070023;28;21772;-79
2021/08/26 08:09:01;;;;;;;10.40;5.47;;;;;;;23.79;52.93;97741.28;5057694;28;20220;-82
2021/08/26 08:11:29;;;;;;;10.00;5.70;;;;;;;22.92;54.56;97730.78;5062000;28;20282;-81
2021/08/26 08:14:00;;;;;;;11.23;6.03;;;;;;;23.75;52.10;97737.53;5054265;28;20202;-79
2021/08/26 08:16:27;;;;;;;15.90;5.80;;;;;;;23.26;55.04;97732.38;5064455;28;20204;-79
2021/08/26 08:18:54;;;;;;;10.03;6.00;;;;;;;23.88;53.23;97736.81;5068908;28;20226;-78
2021/08/26 08:21:23;;;;;;;9.27;5.10;;;;;;;23.71;53.67;97734.56;5058949;28;20289;-82
2021/08/26 08:23:50;;;;;;;11.93;6.03;;;;;;;23.30;57.11;97733.41;5055841;28;20211;-78
2021/08/26 08:26:18;;;;;;;16.43;7.00;;;;;;;22.79;60.60;97725.97;5062902;28;20215;-79
2021/08/26 08:28:45;;;;;;;10.77;6.83;;;;;;;22.81;63.19;97729.25;5069593;28;20299;-82
2021/08/26 08:31:12;;;;;;;14.67;7.73;;;;;;;22.75;63.73;97733.13;5053890;28;20258;-82
2021/08/26 08:33:40;;;;;;;15.60;7.10;;;;;;;22.81;63.01;97732.75;5057994;28;20210;-83
2021/08/26 08:36:07;;;;;;;11.93;7.30;;;;;;;23.09;63.80;97733.88;5058598;28;20212;-84
2021/08/26 08:38:36;;;;;;;13.57;7.83;;;;;;;22.68;68.47;97729.88;5066358;28;20244;-82
2021/08/26 08:41:04;;;;;;;10.93;7.53;;;;;;;21.87;74.00;97728.75;5056251;28;20698;-81
2021/08/26 08:43:31;;;;;;;12.60;7.50;;;;;;;22.18;74.20;97728.31;5062667;28;20566;-82
2021/08/26 08:45:59;;;;;;;15.17;8.33;;;;;;;22.69;73.74;97728.78;5061310;28;20577;-80
2021/08/26 08:48:27;;;;;;;11.57;8.23;;;;;;;22.32;76.96;97720.34;5074557;28;20193;-79
2021/08/26 08:50:55;;;;;;;15.40;8.83;;;;;;;22.44;76.43;97718.94;5063873;28;20221;-79
2021/08/26 08:53:22;;;;;;;12.57;8.50;;;;;;;21.83;78.39;97720.38;5052560;28;20206;-79
2021/08/26 08:55:51;;;;;;;14.40;8.77;;;;;;;21.94;82.00;97718.41;5063249;28;20206;-79
2021/08/26 08:58:18;;;;;;;14.67;8.87;;;;;;;22.19;79.53;97726.44;5068973;28;20241;-80
2021/08/26 09:00:46;;;;;;;12.67;8.40;;;;;;;22.42;77.75;97728.44;5068248;28;20222;-79
2021/08/26 09:03:13;;;;;;;14.80;8.97;;;;;;;22.36;76.82;97738.56;5050620;28;20214;-80
2021/08/26 09:05:58;;;;;;;16.33;9.30;;;;;;;22.24;77.97;97735.34;5046329;28;20206;-79
2021/08/26 09:08:27;;;;;;;15.00;8.87;;;;;;;22.70;75.14;97742.13;5072628;28;20201;-78
2021/08/26 09:11:10;;;;;;;16.30;9.17;;;;;;;22.24;81.58;97729.91;5046579;28;20222;-78
2021/08/26 09:13:38;;;;;;;12.67;8.57;;;;;;;22.47;80.03;97729.25;5054081;28;20194;-80
2021/08/26 09:16:07;;;;;;;14.60;9.27;;;;;;;22.83;82.52;97737.94;5050601;28;20211;-82
2021/08/26 09:18:34;;;;;;;15.13;10.07;;;;;;;22.64;83.15;97731.59;5047364;28;20720;-80
2021/08/26 09:21:04;;;;;;;13.17;9.70;;;;;;;22.85;79.11;97733.03;5057676;28;20218;-78
2021/08/26 09:23:33;;;;;;;14.07;9.47;;;;;;;23.60;75.67;97735.81;5073581;28;20197;-80
2021/08/26 09:26:18;;;;;;;14.33;10.00;;;;;;;22.99;78.62;97723.91;5065073;28;20270;-78
2021/08/26 09:28:46;;;;;;;12.03;8.70;;;;;;;22.29;81.30;97729.88;5056404;28;20678;-80
2021/08/26 09:31:16;;;;;;;13.83;8.93;;;;;;;22.42;82.84;97731.16;5067735;28;20225;-79
2021/08/26 09:33:51;;;;;;;13.80;9.77;;;;;;;22.78;78.17;97736.06;5066745;28;20567;-79
2021/08/26 09:36:20;;;;;;;12.53;8.93;;;;;;;23.38;74.89;97737.41;5064336;28;20549;-79
2021/08/26 09:38:52;;;;;;;10.70;7.47;;;;;;;22.62;79.88;97740.03;5063934;28;20237;-79
2021/08/26 09:41:39;;;;;;;11.47;7.60;;;;;;;22.64;83.70;97742.47;5063038;28;20538;-74
2021/08/26 09:44:08;;;;;;;10.63;7.50;;;;;;;22.95;81.37;97744.63;5066102;28;20231;-78
2021/08/26 09:46:36;;;;;;;10.27;7.00;;;;;;;22.20;86.02;97739.72;5055142;28;20221;-76
2021/08/26 09:49:05;;;;;;;12.13;7.97;;;;;;;22.63;87.24;97744.34;5065661;28;20207;-73
2021/08/26 09:51:32;;;;;;;9.70;7.37;;;;;;;23.10;85.14;97740.97;5063373;28;20221;-76
2021/08/26 09:54:00;;;;;;;9.93;7.77;;;;;;;22.97;84.93;97744.34;5063797;28;20211;-75
2021/08/26 09:56:40;;;;;;;7.80;6.33;;;;;;;23.05;83.16;97749.97;5053438;28;20206;-77
2021/08/26 09:59:08;;;;;;;8.10;6.37;;;;;;;23.04;84.88;97744.81;5055516;28;20218;-77
2021/08/26 10:01:39;;;;;;;6.90;5.47;;;;;;;22.51;88.32;97746.63;5068253;28;20475;-81
2021/08/26 10:04:27;;;;;;;7.65;5.68;;;;;;;22.92;84.79;97745.22;5065844;28;20443;-78
2021/08/26 10:06:55;;;;;;;7.17;4.80;;;;;;;22.84;82.75;97747.72;5051523;28;20668;-76
2021/08/26 10:09:23;;;;;;;9.33;5.80;;;;;;;22.53;86.64;97749.88;5066540;28;20197;-75
2021/08/26 10:11:51;;;;;;;5.30;4.20;;;;;;;22.44;83.30;97758.91;5070243;28;20236;-77
2021/08/26 10:14:19;;;;;;;5.03;3.50;;;;;;;21.64;89.50;97764.69;5057153;28;20213;-77
2021/08/26 10:16:47;;;;;;;5.50;3.60;;;;;;;22.06;90.18;97760.47;5060293;28;20206;-76
2021/08/26 10:19:16;;;;;;;5.27;3.70;;;;;;;22.34;87.76;97756.25;5062722;28;20209;-76
2021/08/26 10:21:46;;;;;;;5.03;3.37;;;;;;;21.95;86.23;97767.03;5070465;28;20218;-77
2021/08/26 10:24:15;;;;;;;4.67;3.50;;;;;;;21.77;87.90;97766.84;5066090;28;20205;-78
2021/08/26 10:26:44;;;;;;;5.50;3.20;;;;;;;21.32;88.86;97772.38;5063091;28;20292;-76
2021/08/26 10:29:14;;;;;;;6.40;2.90;;;;;;;21.55;91.18;97769.06;5050002;28;20202;-76
2021/08/26 10:31:41;;;;;;;3.27;2.57;;;;;;;21.72;89.04;97775.00;5062379;28;20229;-77
2021/08/26 10:34:12;;;;;;;3.63;2.40;;;;;;;22.16;83.76;97773.19;5054053;28;20197;-76
2021/08/26 10:37:21;;;;;;;4.03;2.47;;;;;;;22.52;82.07;97752.88;5050311;28;20236;-73
2021/08/26 10:39:50;;;;;;;3.00;2.20;;;;;;;22.09;83.25;97768.06;5051826;28;20563;-76
2021/08/26 10:42:40;;;;;;;3.00;2.50;;;;;;;22.06;82.83;97762.38;5060513;28;20202;-75
2021/08/26 10:45:19;;;;;;;9.60;2.73;;;;;;;21.73;82.86;97757.66;5056419;28;20204;-72
2021/08/26 10:48:17;;;;;;;2.40;2.13;;;;;;;23.10;76.36;97762.75;5052872;28;20245;-72
2021/08/26 10:50:48;;;;;;;4.90;1.93;;;;;;;23.01;78.07;97759.00;5060874;28;20587;-76
2021/08/26 10:53:26;;;;;;;3.87;2.53;;;;;;;22.46;76.84;97746.66;5074008;28;20205;-78
2021/08/26 10:55:54;;;;;;;4.23;2.43;;;;;;;22.86;76.11;97748.25;5053739;28;20198;-78
2021/08/26 10:58:38;;;;;;;3.77;2.47;;;;;;;23.53;73.65;97754.44;5055950;28;20206;-77
2021/08/26 11:01:12;;;;;;;4.53;2.73;;;;;;;23.50;69.04;97754.16;5047031;28;20647;-78
2021/08/26 11:03:59;;;;;;;4.37;3.33;;;;;;;23.63;65.28;97767.94;5051209;28;20217;-78
2021/08/26 11:06:40;;;;;;;4.97;3.10;;;;;;;23.44;70.31;97758.06;5048173;28;20279;-78
2021/08/26 11:09:38;;;;;;;5.10;3.40;;;;;;;24.24;62.68;97752.47;5055434;28;20189;-77
2021/08/26 11:12:29;;;;;;;6.33;3.40;;;;;;;24.41;60.50;97757.38;5055564;28;20191;-79
2021/08/26 11:14:59;;;;;;;5.53;3.70;;;;;;;23.89;64.45;97741.19;5061121;28;20284;-76
2021/08/26 11:17:34;;;;;;;6.80;3.37;;;;;;;24.51;58.48;97746.31;5055965;28;20935;-79
2021/08/26 11:20:28;;;;;;;5.53;3.40;;;;;;;25.27;55.57;97746.72;5054433;28;20230;-78
2021/08/26 11:23:11;;;;;;;5.80;3.53;;;;;;;24.82;51.60;97755.72;5070066;28;20555;-77
2021/08/26 11:25:39;;;;;;;5.40;3.90;;;;;;;25.82;48.74;97756.59;5069405;28;20198;-80
2021/08/26 11:28:31;;;;;;;8.07;3.77;;;;;;;24.48;53.61;97746.94;5059228;28;20202;-78
2021/08/26 11:31:21;;;;;;;6.57;4.07;;;;;;;26.54;46.66;97763.78;5060229;28;20235;-77
2021/08/26 11:33:51;;;;;;;6.10;3.33;;;;;;;24.99;46.32;97775.06;5064397;28;20273;-79
2021/08/26 11:36:19;;;;;;;5.27;3.70;;;;;;;25.40;47.10;97776.00;5062766;28;20230;-78
2021/08/26 11:38:52;;;;;;;6.90;3.80;;;;;;;25.46;47.45;97766.59;5057951;28;20675;-78
2021/08/26 11:41:19;;;;;;;6.23;4.37;;;;;;;25.60;46.21;97762.78;5054178;28;20222;-69
2021/08/26 11:43:46;;;;;;;7.27;4.37;;;;;;;24.95;48.54;97761.22;5055101;28;20203;-71
2021/08/26 11:46:15;;;;;;;5.20;3.80;;;;;;;25.13;52.05;97757.59;5058635;28;20213;-71